首页
METAR-TAF:

METAR-TAF

机场 :

阿斯旺, 埃及

纬度: 23-58N, 经度: 032-47E, 海拔: 200米

当前天气观测

该预报发布于1小时和9分钟前的01:00 UTC
风速5节,风向东北
温度 24°C
湿度 34%
气压 1009 hPa
能见度10公里或以上
1500米以下无云,无积雨云

METAR: HESN 170100Z 04005KT CAVOK 24/07 Q1009

时间: 04:09 (02:09 UTC)

预报

该预报发布于3小时和9分钟前的23:00 UTC
预报有效从17日的 00点(UTC)到 18日的 06点(UTC)
风速8节,风向西转西南
能见度10公里或以上
1500米以下无云,无积雨云

TAF: HESN 162300Z 1700/1806 25008KT CAVOK

超过4000个机场的气象观测和天气预报(METAR&TAF报告)。

可查询的气象台以黄色和红色小点在地图上表示。

将鼠标移到小点上方,可查看气象台名称。

然后点击查看天气观测和预报。

如需切换地图:点击带黑十字的绿色按钮放大地图;点击带横线的绿色按钮缩小地图;或者点击绿色箭头查看邻近地区的地图。


METAR-TAF: